RYR9AW LOWW-LMML
Flight info
| Callsign | RYR9AW |
|---|---|
| Flight time | N/A |
| Altitude | 31000 |
| Route | STEIN3C/29 STEIN DCT NOHAT DCT KOPRY/N0467F320 DCT KATTI/N0468F330 DCT MARON/N0408F190 L12 GZO |
| Aircraft | A320/M-SDE3FGHIRWY/LB1 |
Departure
| Time | 2026-05-07 19:54 |
|---|---|
| Airport | Vienna International Airport (LOWW) |
Arrival
| Time | N/A |
|---|---|
| Airport | Malta International Airport (LMML) |
| Time | Latitude | Longitude | Altitude | Speed | Heading |
|---|---|---|---|---|---|
| 2026-05-07 18:53 | 48.12007 | 16.55874 | 611 ft | 0 kts | 296° |
| 2026-05-07 19:40 | 48.11999 | 16.55897 | 616 ft | 4 kts | 299° |
| 2026-05-07 19:41 | 48.11985 | 16.55932 | 618 ft | 4 kts | 305° |
| 2026-05-07 19:41 | 48.11969 | 16.55964 | 625 ft | 4 kts | 308° |
| 2026-05-07 19:41 | 48.11955 | 16.55991 | 616 ft | 2 kts | 304° |
| 2026-05-07 19:41 | 48.11959 | 16.55969 | 619 ft | 4 kts | 275° |
| 2026-05-07 19:42 | 48.11946 | 16.55940 | 609 ft | 4 kts | 220° |
| 2026-05-07 19:42 | 48.11934 | 16.55930 | 609 ft | 0 kts | 206° |
| 2026-05-07 19:47 | 48.11929 | 16.55926 | 618 ft | 3 kts | 206° |
| 2026-05-07 19:47 | 48.11898 | 16.55904 | 609 ft | 8 kts | 206° |
| 2026-05-07 19:48 | 48.11837 | 16.55860 | 609 ft | 11 kts | 206° |
| 2026-05-07 19:48 | 48.11786 | 16.55822 | 609 ft | 4 kts | 206° |
| 2026-05-07 19:48 | 48.11774 | 16.55814 | 609 ft | 2 kts | 206° |
| 2026-05-07 19:48 | 48.11728 | 16.55780 | 613 ft | 11 kts | 205° |
| 2026-05-07 19:49 | 48.11674 | 16.55845 | 612 ft | 12 kts | 115° |
| 2026-05-07 19:49 | 48.11637 | 16.55963 | 609 ft | 13 kts | 116° |
| 2026-05-07 19:49 | 48.11594 | 16.56096 | 614 ft | 15 kts | 116° |
| 2026-05-07 19:49 | 48.11545 | 16.56243 | 616 ft | 17 kts | 116° |
| 2026-05-07 19:50 | 48.11491 | 16.56406 | 611 ft | 18 kts | 116° |
| 2026-05-07 19:50 | 48.11434 | 16.56584 | 613 ft | 20 kts | 116° |
| 2026-05-07 19:50 | 48.11370 | 16.56778 | 620 ft | 22 kts | 116° |
| 2026-05-07 19:50 | 48.11302 | 16.56987 | 617 ft | 23 kts | 116° |
| 2026-05-07 19:51 | 48.11229 | 16.57210 | 612 ft | 25 kts | 116° |
| 2026-05-07 19:51 | 48.11153 | 16.57446 | 619 ft | 26 kts | 116° |
| 2026-05-07 19:51 | 48.11080 | 16.57640 | 609 ft | 16 kts | 145° |
| 2026-05-07 19:51 | 48.11023 | 16.57633 | 619 ft | 0 kts | 207° |
| 2026-05-07 19:52 | 48.11022 | 16.57632 | 618 ft | 2 kts | 207° |
| 2026-05-07 19:52 | 48.11004 | 16.57618 | 609 ft | 4 kts | 207° |
| 2026-05-07 19:52 | 48.10966 | 16.57588 | 614 ft | 8 kts | 208° |
| 2026-05-07 19:53 | 48.10925 | 16.57515 | 609 ft | 12 kts | 270° |
| 2026-05-07 19:53 | 48.10963 | 16.57388 | 615 ft | 18 kts | 296° |
| 2026-05-07 19:53 | 48.11087 | 16.57001 | 617 ft | 73 kts | 296° |
| 2026-05-07 19:53 | 48.11395 | 16.56057 | 618 ft | 126 kts | 296° |
| 2026-05-07 19:54 | 48.11843 | 16.54673 | 614 ft | 168 kts | 295° |
| 2026-05-07 19:54 | 48.12328 | 16.53007 | 1010 ft | 173 kts | 284° |
| 2026-05-07 19:54 | 48.12214 | 16.51279 | 1584 ft | 172 kts | 236° |
| 2026-05-07 19:54 | 48.11225 | 16.50271 | 2018 ft | 187 kts | 196° |
| 2026-05-07 19:55 | 48.09872 | 16.49834 | 2302 ft | 209 kts | 193° |
| 2026-05-07 19:55 | 48.08413 | 16.49357 | 2816 ft | 219 kts | 194° |
| 2026-05-07 19:55 | 48.06917 | 16.48818 | 3630 ft | 223 kts | 196° |
| 2026-05-07 19:55 | 48.05918 | 16.48414 | 4200 ft | 225 kts | 202° |
| 2026-05-07 19:56 | 48.04501 | 16.47337 | 4868 ft | 238 kts | 213° |
| 2026-05-07 19:56 | 48.03024 | 16.45980 | 5224 ft | 261 kts | 214° |
| 2026-05-07 19:56 | 48.01449 | 16.44466 | 5784 ft | 275 kts | 214° |
| 2026-05-07 19:56 | 47.99786 | 16.42984 | 6599 ft | 281 kts | 204° |
| 2026-05-07 19:57 | 47.97888 | 16.42262 | 7349 ft | 286 kts | 184° |
| 2026-05-07 19:57 | 47.95905 | 16.42544 | 8090 ft | 289 kts | 166° |
| 2026-05-07 19:57 | 47.93941 | 16.43249 | 8853 ft | 292 kts | 166° |
| 2026-05-07 19:57 | 47.91956 | 16.43962 | 9604 ft | 295 kts | 167° |
| 2026-05-07 19:58 | 47.89948 | 16.44681 | 10267 ft | 301 kts | 167° |
| 2026-05-07 19:58 | 47.87836 | 16.45431 | 10438 ft | 324 kts | 167° |
| 2026-05-07 19:58 | 47.85562 | 16.46233 | 10568 ft | 347 kts | 167° |
| 2026-05-07 19:58 | 47.83141 | 16.47085 | 10694 ft | 367 kts | 167° |
| 2026-05-07 19:59 | 47.80595 | 16.47979 | 10820 ft | 385 kts | 167° |
| 2026-05-07 19:59 | 47.77931 | 16.48914 | 11030 ft | 399 kts | 168° |
| 2026-05-07 19:59 | 47.75210 | 16.49872 | 11537 ft | 404 kts | 168° |
| 2026-05-07 19:59 | 47.72468 | 16.50835 | 12127 ft | 406 kts | 168° |
| 2026-05-07 20:00 | 47.69708 | 16.51804 | 12737 ft | 409 kts | 168° |
| 2026-05-07 20:00 | 47.66970 | 16.52766 | 13369 ft | 411 kts | 168° |
| 2026-05-07 20:00 | 47.64181 | 16.53745 | 13977 ft | 413 kts | 168° |
| 2026-05-07 20:00 | 47.61374 | 16.54726 | 14515 ft | 415 kts | 168° |
| 2026-05-07 20:01 | 47.58553 | 16.55711 | 15036 ft | 417 kts | 168° |
| 2026-05-07 20:01 | 47.55720 | 16.56699 | 15545 ft | 420 kts | 168° |
| 2026-05-07 20:01 | 47.52871 | 16.57693 | 16109 ft | 422 kts | 168° |